createdAt,value
2022-10-11T00:00:11.130Z,2.47
2022-10-11T00:03:12.476Z,2.60
2022-10-11T00:06:13.803Z,3.20
2022-10-11T00:09:15.362Z,2.30
2022-10-11T00:12:16.723Z,2.67
2022-10-11T00:15:21.067Z,3.05
2022-10-11T00:18:22.488Z,3.10
2022-10-11T00:21:23.815Z,2.10
2022-10-11T00:24:25.156Z,3.05
2022-10-11T00:27:26.950Z,2.40
2022-10-11T00:30:28.303Z,2.90
2022-10-11T00:33:29.668Z,2.55
2022-10-11T00:36:31.221Z,3.67
2022-10-11T00:39:32.687Z,4.18
2022-10-11T00:42:34.040Z,3.08
2022-10-11T00:45:35.461Z,2.40
2022-10-11T00:48:36.789Z,3.05
2022-10-11T00:51:50.996Z,3.35
2022-10-11T00:54:52.364Z,3.30
2022-10-11T00:57:56.277Z,2.38
2022-10-11T01:00:57.780Z,3.33
2022-10-11T01:03:59.489Z,2.95
2022-10-11T01:07:01.929Z,3.00
2022-10-11T01:10:03.749Z,2.40
2022-10-11T01:13:30.357Z,2.58
2022-10-11T01:16:49.778Z,2.90
2022-10-11T01:19:56.799Z,2.40
2022-10-11T01:23:09.431Z,4.40
2022-10-11T01:26:22.781Z,2.40
2022-10-11T01:29:57.166Z,2.65
2022-10-11T01:33:17.022Z,3.38
2022-10-11T01:36:31.748Z,2.67
2022-10-11T01:39:38.942Z,2.55
2022-10-11T01:42:42.592Z,2.25
2022-10-11T01:45:45.299Z,2.28
2022-10-11T01:48:52.406Z,3.00
2022-10-11T01:51:57.656Z,3.17
2022-10-11T01:55:19.897Z,2.67
2022-10-11T01:58:30.029Z,2.45
2022-10-11T02:01:59.507Z,2.95
2022-10-11T02:05:28.926Z,3.00
2022-10-11T02:08:44.667Z,3.30
2022-10-11T02:11:46.100Z,2.95
2022-10-11T02:14:50.640Z,3.08
2022-10-11T02:17:56.927Z,2.95
2022-10-11T02:21:02.483Z,2.70
2022-10-11T02:24:10.624Z,2.30
2022-10-11T02:27:15.196Z,3.47
2022-10-11T02:30:17.120Z,3.38
2022-10-11T02:33:24.581Z,3.13
2022-10-11T02:36:39.698Z,2.35
2022-10-11T02:39:50.394Z,3.75
2022-10-11T02:43:11.690Z,2.60
2022-10-11T02:46:16.615Z,3.17
2022-10-11T02:49:19.904Z,3.05
2022-10-11T02:52:21.291Z,2.53
2022-10-11T02:55:22.640Z,2.47
2022-10-11T02:58:24.646Z,2.53
2022-10-11T03:01:26.077Z,2.50
2022-10-11T03:04:27.554Z,2.88
2022-10-11T03:07:28.927Z,2.55
2022-10-11T03:10:30.287Z,2.65
2022-10-11T03:13:31.738Z,4.50
2022-10-11T03:16:33.106Z,2.95
2022-10-11T03:19:34.463Z,2.92
2022-10-11T03:22:35.839Z,2.88
2022-10-11T03:25:37.239Z,2.60
2022-10-11T03:28:38.689Z,3.45
2022-10-11T03:31:40.054Z,2.80
2022-10-11T03:34:41.402Z,3.83
2022-10-11T03:37:42.731Z,3.45
2022-10-11T03:40:44.128Z,3.13
2022-10-11T03:43:45.466Z,3.40
2022-10-11T03:46:46.894Z,2.97
2022-10-11T03:49:48.251Z,2.80
2022-10-11T03:52:49.587Z,2.92
2022-10-11T03:55:55.608Z,3.33
2022-10-11T03:58:56.995Z,2.70
2022-10-11T04:01:58.358Z,3.53
2022-10-11T04:04:59.740Z,2.75
2022-10-11T04:08:01.085Z,3.30
2022-10-11T04:11:02.480Z,3.00
2022-10-11T04:14:03.826Z,2.38
2022-10-11T04:17:05.156Z,4.60
2022-10-11T04:20:07.561Z,3.25
2022-10-11T04:23:08.920Z,4.75
2022-10-11T04:26:10.788Z,4.13
2022-10-11T04:29:12.153Z,3.20
2022-10-11T04:32:13.485Z,8.48
2022-10-11T04:35:14.833Z,14.43
2022-10-11T04:38:16.196Z,17.05
2022-10-11T04:41:17.597Z,16.52
2022-10-11T04:44:18.945Z,18.55
2022-10-11T04:47:20.329Z,15.55
2022-10-11T04:50:21.802Z,17.80
2022-10-11T04:53:23.627Z,14.57
2022-10-11T04:56:24.986Z,6.15
2022-10-11T04:59:26.330Z,3.78
2022-10-11T05:02:27.704Z,3.78
2022-10-11T05:05:29.110Z,6.90
2022-10-11T05:08:30.488Z,7.30
2022-10-11T05:11:31.983Z,8.82
2022-10-11T05:14:33.346Z,5.75
2022-10-11T05:17:35.090Z,3.53
2022-10-11T05:20:36.436Z,3.10
2022-10-11T05:23:37.778Z,2.58
2022-10-11T05:26:39.194Z,3.33
2022-10-11T05:29:40.591Z,2.70
2022-10-11T05:32:41.947Z,3.00
2022-10-11T05:35:43.871Z,2.95
2022-10-11T05:38:45.210Z,2.95
2022-10-11T05:41:46.552Z,2.33
2022-10-11T05:44:47.868Z,3.28
2022-10-11T05:47:49.225Z,2.70
2022-10-11T05:50:50.545Z,3.40
2022-10-11T05:53:51.907Z,3.13
2022-10-11T05:56:53.244Z,2.10
2022-10-11T05:59:54.564Z,3.47
2022-10-11T06:02:55.930Z,3.05
2022-10-11T06:05:57.478Z,3.25
2022-10-11T06:08:58.853Z,3.13
2022-10-11T06:12:00.609Z,2.95
2022-10-11T06:15:02.953Z,3.10
2022-10-11T06:18:04.433Z,2.13
2022-10-11T06:21:05.836Z,2.67
2022-10-11T06:24:07.387Z,2.72
2022-10-11T06:27:08.769Z,2.20
2022-10-11T06:30:10.371Z,2.85
2022-10-11T06:33:11.700Z,2.72
2022-10-11T06:36:14.360Z,2.83
2022-10-11T06:39:15.700Z,1.80
2022-10-11T06:42:17.411Z,2.42
2022-10-11T06:45:18.767Z,3.17
2022-10-11T06:48:20.099Z,2.85
2022-10-11T06:51:22.131Z,4.47
2022-10-11T06:54:23.839Z,4.35
2022-10-11T06:57:25.168Z,3.80
2022-10-11T07:00:26.521Z,2.95
2022-10-11T07:03:29.289Z,2.47
2022-10-11T07:06:31.578Z,2.35
2022-10-11T07:09:34.140Z,2.08
2022-10-11T07:12:35.537Z,2.63
2022-10-11T07:15:37.193Z,2.45
2022-10-11T07:18:39.128Z,3.05
2022-10-11T07:21:40.461Z,3.05
2022-10-11T07:24:41.801Z,3.25
2022-10-11T07:27:43.154Z,2.30
2022-10-11T07:30:44.481Z,2.13
2022-10-11T07:33:46.305Z,2.28
2022-10-11T07:36:47.654Z,2.00
2022-10-11T07:39:49.550Z,2.45
2022-10-11T07:42:50.881Z,4.13
2022-10-11T07:45:53.205Z,2.72
2022-10-11T07:48:54.547Z,2.90
2022-10-11T07:51:55.866Z,3.42
2022-10-11T07:54:57.190Z,2.63
2022-10-11T07:57:58.566Z,2.88
2022-10-11T08:01:00.372Z,2.78
2022-10-11T08:04:01.818Z,3.38
2022-10-11T08:07:03.498Z,3.60
2022-10-11T08:10:06.591Z,2.90
2022-10-11T08:13:07.999Z,3.60
2022-10-11T08:16:11.479Z,3.30
2022-10-11T08:19:12.870Z,3.00
2022-10-11T08:22:14.275Z,3.28
2022-10-11T08:25:15.659Z,4.97
2022-10-11T08:28:17.087Z,3.53
2022-10-11T08:31:18.654Z,2.55
2022-10-11T08:34:20.016Z,3.70
2022-10-11T08:37:21.350Z,2.30
2022-10-11T08:40:24.328Z,2.03
2022-10-11T08:43:52.137Z,1.67
2022-10-11T08:47:01.160Z,1.88
2022-10-11T08:50:05.036Z,2.20
2022-10-11T08:53:40.154Z,1.60
2022-10-11T08:56:42.396Z,2.25
2022-10-11T08:59:55.593Z,2.13
2022-10-11T09:03:20.972Z,1.63
2022-10-11T09:06:25.150Z,1.67
2022-10-11T09:09:45.261Z,1.70
2022-10-11T09:13:07.968Z,3.03
2022-10-11T09:16:15.294Z,4.88
2022-10-11T09:19:48.929Z,2.80
2022-10-11T09:23:03.109Z,2.25
2022-10-11T09:26:18.945Z,1.77
2022-10-11T09:29:50.276Z,1.80
2022-10-11T09:32:58.537Z,3.05
2022-10-11T09:36:02.393Z,2.33
2022-10-11T09:39:31.390Z,1.80
2022-10-11T09:42:32.708Z,2.17
2022-10-11T09:45:34.048Z,1.85
2022-10-11T09:48:41.124Z,2.65
2022-10-11T09:51:47.225Z,1.98
2022-10-11T09:54:51.499Z,2.40
2022-10-11T09:57:55.558Z,2.60
2022-10-11T10:01:07.701Z,2.55
2022-10-11T10:04:12.907Z,2.05
2022-10-11T10:07:15.591Z,2.10
2022-10-11T10:10:30.134Z,2.10
2022-10-11T10:13:49.227Z,2.33
2022-10-11T10:17:00.463Z,2.95
2022-10-11T10:20:02.383Z,2.15
2022-10-11T10:23:28.821Z,2.70
2022-10-11T10:26:32.439Z,2.25
2022-10-11T10:29:33.852Z,2.13
2022-10-11T10:32:48.537Z,2.55
2022-10-11T10:35:56.380Z,2.38
2022-10-11T10:39:39.073Z,3.40
2022-10-11T10:42:40.452Z,2.10
2022-10-11T10:46:23.533Z,2.25
2022-10-11T10:49:55.117Z,1.92
2022-10-11T10:52:59.461Z,2.53
2022-10-11T10:56:24.737Z,2.10
2022-10-11T10:59:33.753Z,1.95
2022-10-11T11:02:54.756Z,1.95
2022-10-11T11:06:09.908Z,1.85
2022-10-11T11:09:36.365Z,2.00
2022-10-11T11:12:46.123Z,2.00
2022-10-11T11:16:01.904Z,2.08
2022-10-11T11:19:48.670Z,2.30
2022-10-11T11:23:16.166Z,2.17
2022-10-11T11:26:32.591Z,2.60
2022-10-11T11:29:58.942Z,2.45
2022-10-11T11:33:14.955Z,2.42
2022-10-11T11:36:27.088Z,2.67
2022-10-11T11:39:37.642Z,2.45
2022-10-11T11:42:45.687Z,1.92
2022-10-11T11:45:52.052Z,2.60
2022-10-11T11:48:56.756Z,2.45
2022-10-11T11:51:59.632Z,2.45
2022-10-11T11:55:24.440Z,2.42
2022-10-11T11:58:47.820Z,2.20
2022-10-11T12:02:06.909Z,2.58
2022-10-11T12:05:10.097Z,2.15
2022-10-11T12:11:52.816Z,2.70
2022-10-11T12:15:15.316Z,2.35
2022-10-11T12:18:17.101Z,2.65
2022-10-11T12:21:37.845Z,2.15
2022-10-11T12:25:01.660Z,2.38
2022-10-11T12:28:38.035Z,1.70
2022-10-11T12:31:43.731Z,2.20
2022-10-11T12:34:47.281Z,1.98
2022-10-11T12:37:52.294Z,1.88
2022-10-11T12:40:56.854Z,1.67
2022-10-11T12:44:18.683Z,1.67
2022-10-11T12:47:35.170Z,1.50
2022-10-11T12:51:03.210Z,1.60
2022-10-11T12:54:33.275Z,1.77
2022-10-11T12:57:55.842Z,1.63
2022-10-11T13:00:57.174Z,1.70
2022-10-11T13:04:02.930Z,1.38
2022-10-11T13:07:12.958Z,1.85
2022-10-11T13:10:17.832Z,1.55
2022-10-11T13:13:25.516Z,1.95
2022-10-11T13:16:29.794Z,1.38
2022-10-11T13:19:33.409Z,1.80
2022-10-11T13:22:37.979Z,2.60
2022-10-11T13:25:39.402Z,5.25
2022-10-11T13:28:47.974Z,2.97
2022-10-11T13:31:50.523Z,2.17
2022-10-11T13:35:25.439Z,2.20
2022-10-11T13:38:28.227Z,2.00
2022-10-11T13:41:31.911Z,1.33
2022-10-11T13:44:33.923Z,1.70
2022-10-11T13:47:35.400Z,1.75
2022-10-11T13:50:36.779Z,2.63
2022-10-11T13:53:55.881Z,1.73
2022-10-11T13:56:57.279Z,1.83
2022-10-11T13:59:58.828Z,1.23
2022-10-11T14:03:05.049Z,2.63
2022-10-11T14:06:07.532Z,1.85
2022-10-11T14:09:27.197Z,1.20
2022-10-11T14:12:33.269Z,2.15
2022-10-11T14:15:36.994Z,1.90
2022-10-11T14:18:44.029Z,2.00
2022-10-11T14:21:45.325Z,1.95
2022-10-11T14:24:47.866Z,1.25
2022-10-11T14:27:49.618Z,1.90
2022-10-11T14:30:50.954Z,2.10
2022-10-11T14:33:53.386Z,2.65
2022-10-11T14:36:56.021Z,1.80
2022-10-11T14:39:57.369Z,1.50
2022-10-11T14:42:58.794Z,1.95
2022-10-11T14:46:00.226Z,1.63
2022-10-11T14:49:01.810Z,2.03
2022-10-11T14:52:05.651Z,1.38
2022-10-11T14:55:07.286Z,1.70
2022-10-11T14:58:09.886Z,1.45
2022-10-11T15:01:13.475Z,1.83
2022-10-11T15:04:14.882Z,1.85
2022-10-11T15:07:16.259Z,2.08
2022-10-11T15:10:28.587Z,1.70
2022-10-11T15:13:29.895Z,2.25
2022-10-11T15:16:31.775Z,5.03
2022-10-11T15:19:33.115Z,2.90
2022-10-11T15:22:34.465Z,2.55
2022-10-11T15:25:36.891Z,2.40
2022-10-11T15:28:38.290Z,2.10
2022-10-11T15:31:39.803Z,2.75
2022-10-11T15:34:41.121Z,2.28
2022-10-11T15:37:43.203Z,2.83
2022-10-11T15:40:44.692Z,2.65
2022-10-11T15:43:48.104Z,2.85
2022-10-11T15:46:49.464Z,2.03
2022-10-11T15:49:50.809Z,3.28
2022-10-11T15:52:52.192Z,2.58
2022-10-11T15:55:55.488Z,3.40
2022-10-11T16:01:58.135Z,6.07
2022-10-11T16:04:59.497Z,3.90
2022-10-11T16:08:00.856Z,4.10
2022-10-11T16:11:03.213Z,6.88
2022-10-11T16:14:04.539Z,6.33
2022-10-11T16:17:05.873Z,5.28
2022-10-11T16:20:07.798Z,6.40
2022-10-11T16:23:09.830Z,6.28
2022-10-11T16:26:13.370Z,3.95
2022-10-11T16:29:14.726Z,3.55
2022-10-11T16:32:16.161Z,3.40
2022-10-11T16:35:17.658Z,3.55
2022-10-11T16:38:18.990Z,10.43
2022-10-11T16:41:20.343Z,10.82
2022-10-11T16:44:22.721Z,5.93
2022-10-11T16:47:24.080Z,6.53
2022-10-11T16:50:26.034Z,4.95
2022-10-11T16:53:27.356Z,4.00
2022-10-11T16:56:28.790Z,3.00
2022-10-11T16:59:30.640Z,3.08
2022-10-11T17:02:32.702Z,3.28
2022-10-11T17:05:36.351Z,3.67
2022-10-11T17:08:37.732Z,4.30
2022-10-11T17:11:39.170Z,2.83
2022-10-11T17:14:41.465Z,2.47
2022-10-11T17:17:42.813Z,3.15
2022-10-11T17:20:44.304Z,3.17
2022-10-11T17:23:46.300Z,2.67
2022-10-11T17:26:47.669Z,2.75
2022-10-11T17:29:49.028Z,5.00
2022-10-11T17:32:53.251Z,8.77
2022-10-11T17:35:56.124Z,6.10
2022-10-11T17:38:58.972Z,6.05
2022-10-11T17:42:00.449Z,3.65
2022-10-11T17:45:01.993Z,4.15
2022-10-11T17:48:03.493Z,2.75
2022-10-11T17:51:10.485Z,3.72
2022-10-11T17:54:11.865Z,4.10
2022-10-11T17:57:13.233Z,3.50
2022-10-11T18:00:15.277Z,4.97
2022-10-11T18:03:16.593Z,10.65
2022-10-11T18:06:17.974Z,11.68
2022-10-11T18:09:19.999Z,9.25
2022-10-11T18:12:21.341Z,5.28
2022-10-11T18:15:22.750Z,8.38
2022-10-11T18:18:24.098Z,15.18
2022-10-11T18:21:31.192Z,14.45
2022-10-11T18:24:35.426Z,6.95
2022-10-11T18:27:36.818Z,7.03
2022-10-11T18:30:45.842Z,13.32
2022-10-11T18:33:48.234Z,14.90
2022-10-11T18:36:49.603Z,13.93
2022-10-11T18:39:50.947Z,13.68
2022-10-11T18:42:52.274Z,13.18
2022-10-11T18:46:02.651Z,14.93
2022-10-11T18:49:04.018Z,14.63
2022-10-11T18:52:05.638Z,11.48
2022-10-11T18:55:07.375Z,6.57
2022-10-11T18:58:08.720Z,4.65
2022-10-11T19:01:13.858Z,7.28
2022-10-11T19:04:15.524Z,8.57
2022-10-11T19:07:16.851Z,6.78
2022-10-11T19:10:18.216Z,6.82
2022-10-11T19:13:19.548Z,10.02
2022-10-11T19:16:20.919Z,6.95
2022-10-11T19:19:25.408Z,6.35
2022-10-11T19:22:26.760Z,5.63
2022-10-11T19:25:28.130Z,4.43
2022-10-11T19:28:29.528Z,5.57
2022-10-11T19:31:32.941Z,8.35
2022-10-11T19:37:35.542Z,7.60
2022-10-11T19:40:37.041Z,6.40
2022-10-11T19:43:38.557Z,7.85
2022-10-11T19:46:55.642Z,6.85
2022-10-11T19:49:56.976Z,6.05
2022-10-11T19:52:58.342Z,8.50
2022-10-11T19:56:01.369Z,11.25
2022-10-11T19:59:03.677Z,9.13
2022-10-11T20:02:05.061Z,6.20
2022-10-11T20:05:06.653Z,6.50
2022-10-11T20:08:07.999Z,4.43
2022-10-11T20:11:09.889Z,6.00
2022-10-11T20:14:11.235Z,4.20
2022-10-11T20:17:12.595Z,4.07
2022-10-11T20:20:15.082Z,3.85
2022-10-11T20:23:18.221Z,5.03
2022-10-11T20:26:22.354Z,6.72
2022-10-11T20:29:24.642Z,7.25
2022-10-11T20:32:26.987Z,5.80
2022-10-11T20:35:28.359Z,6.22
2022-10-11T20:38:31.770Z,5.97
2022-10-11T20:44:35.849Z,8.25
2022-10-11T20:47:37.207Z,9.35
2022-10-11T20:50:38.628Z,10.80
2022-10-11T20:53:39.959Z,21.27
2022-10-11T20:56:41.557Z,13.98
2022-10-11T20:59:42.896Z,7.32
2022-10-11T21:02:44.219Z,4.85
2022-10-11T21:05:45.588Z,4.60
2022-10-11T21:08:47.012Z,4.82
2022-10-11T21:11:48.497Z,4.10
2022-10-11T21:14:49.832Z,3.67
2022-10-11T21:17:51.833Z,4.57
2022-10-11T21:20:53.165Z,4.60
2022-10-11T21:24:00.125Z,5.43
2022-10-11T21:27:01.469Z,5.03
2022-10-11T21:30:03.082Z,4.47
2022-10-11T21:33:04.429Z,4.70
2022-10-11T21:36:08.137Z,4.65
2022-10-11T21:39:09.483Z,5.57
2022-10-11T21:42:10.871Z,6.10
2022-10-11T21:45:12.275Z,5.68
2022-10-11T21:48:13.618Z,6.72
2022-10-11T21:51:19.460Z,6.72
2022-10-11T21:54:20.830Z,5.55
2022-10-11T21:57:22.284Z,5.82
2022-10-11T22:00:23.622Z,5.75
2022-10-11T22:03:25.789Z,5.72
2022-10-11T22:06:27.142Z,5.57
2022-10-11T22:09:28.670Z,5.28
2022-10-11T22:12:30.027Z,5.20
2022-10-11T22:15:33.942Z,6.07
2022-10-11T22:18:35.667Z,4.95
2022-10-11T22:21:39.184Z,5.07
2022-10-11T22:24:43.976Z,6.25
2022-10-11T22:27:45.315Z,6.22
2022-10-11T22:30:46.643Z,4.65
2022-10-11T22:33:48.342Z,5.13
2022-10-11T22:36:49.672Z,4.80
2022-10-11T22:39:51.188Z,5.20
2022-10-11T22:42:52.515Z,4.90
2022-10-11T22:45:54.089Z,5.35
2022-10-11T22:48:55.743Z,6.00
2022-10-11T22:51:57.057Z,6.63
2022-10-11T22:54:58.402Z,5.60
2022-10-11T22:57:59.768Z,6.75
2022-10-11T23:01:13.324Z,5.72
2022-10-11T23:07:16.631Z,6.43
2022-10-11T23:10:18.550Z,5.53
2022-10-11T23:13:20.165Z,5.88
2022-10-11T23:16:21.513Z,5.82
2022-10-11T23:19:22.887Z,6.15
2022-10-11T23:22:24.293Z,5.90
2022-10-11T23:25:25.787Z,6.90
2022-10-11T23:28:27.186Z,6.38
2022-10-11T23:31:28.622Z,5.68
2022-10-11T23:34:29.954Z,5.75
2022-10-11T23:37:31.326Z,5.95
2022-10-11T23:40:32.686Z,6.25
2022-10-11T23:43:34.062Z,5.18
2022-10-11T23:46:35.572Z,6.03
2022-10-11T23:49:36.889Z,5.50
2022-10-11T23:52:38.251Z,5.72
2022-10-11T23:55:40.438Z,5.53
2022-10-11T23:58:41.779Z,5.28
